Time;durP1;ratioP1;P1;durP2;ratioP2;P2;SDS_P1;SDS_P2;PMS_P1;PMS_P2;Temp;Humidity;BMP_temperature;BMP_pressure;BME280_temperature;BME280_humidity;BME280_pressure;Samples;Min_cycle;Max_cycle;Signal;HPM_P1;HPM_P2
2023/01/05 00:01:47;;;;;;;0.30;0.30;;;7.80;99.90;;;;;;5037708;28;20480;-88
2023/01/05 00:04:13;;;;;;;0.30;0.30;;;7.80;99.90;;;;;;5049250;28;20465;-88
2023/01/05 00:06:39;;;;;;;0.20;0.20;;;7.80;99.90;;;;;;5052274;28;20511;-88
2023/01/05 00:09:10;;;;;;;0.30;0.30;;;7.80;99.90;;;;;;5034870;28;20501;-90
2023/01/05 00:22:52;;;;;;;0.20;0.20;;;7.80;99.90;;;;;;5047164;28;20502;-88
2023/01/05 00:25:29;;;;;;;0.20;0.20;;;7.70;99.90;;;;;;5052072;28;20453;-89
2023/01/05 00:27:56;;;;;;;0.20;0.20;;;7.80;99.90;;;;;;5032733;28;20865;-89
2023/01/05 00:30:43;;;;;;;0.20;0.20;;;7.90;99.90;;;;;;5052703;28;20551;-89
2023/01/05 00:33:10;;;;;;;0.20;0.20;;;7.90;99.90;;;;;;5050951;28;20503;-89
2023/01/05 00:35:37;;;;;;;0.30;0.30;;;7.80;99.90;;;;;;5049782;28;20501;-90
2023/01/05 00:38:03;;;;;;;0.20;0.20;;;7.90;99.90;;;;;;5050037;28;20447;-89
2023/01/05 00:40:29;;;;;;;0.20;0.20;;;7.90;99.90;;;;;;5033268;28;20460;-90
2023/01/05 00:42:54;;;;;;;0.30;0.30;;;7.90;99.90;;;;;;5052341;28;20781;-87
2023/01/05 00:45:20;;;;;;;0.30;0.30;;;7.90;99.90;;;;;;5034717;28;20194;-89
2023/01/05 00:47:46;;;;;;;0.30;0.30;;;7.80;99.90;;;;;;5046086;28;20740;-90
2023/01/05 00:50:15;;;;;;;0.30;0.30;;;7.90;99.90;;;;;;5051942;28;20575;-90
2023/01/05 00:52:40;;;;;;;0.20;0.20;;;7.80;99.90;;;;;;5036027;28;20446;-90
2023/01/05 00:55:06;;;;;;;0.20;0.20;;;7.80;99.90;;;;;;5050010;28;20452;-90
2023/01/05 00:57:32;;;;;;;0.30;0.30;;;7.80;99.90;;;;;;5045776;28;20273;-88
2023/01/05 00:59:57;;;;;;;0.20;0.20;;;7.80;99.90;;;;;;5050547;28;20449;-88
2023/01/05 01:02:23;;;;;;;0.20;0.20;;;7.90;99.90;;;;;;5049932;28;20266;-88
2023/01/05 01:04:48;;;;;;;0.27;0.27;;;7.90;99.90;;;;;;5050391;28;20690;-89
2023/01/05 01:07:14;;;;;;;0.20;0.20;;;7.90;99.90;;;;;;5048383;28;20232;-88
2023/01/05 01:09:40;;;;;;;0.20;0.20;;;7.80;99.90;;;;;;5048372;28;20195;-89
2023/01/05 01:12:06;;;;;;;0.20;0.20;;;7.80;99.90;;;;;;5045799;28;20232;-89
2023/01/05 01:14:31;;;;;;;0.30;0.30;;;7.90;99.90;;;;;;5049569;28;20459;-88
2023/01/05 01:16:57;;;;;;;0.20;0.20;;;7.90;99.90;;;;;;5050272;28;21003;-88
2023/01/05 01:19:24;;;;;;;0.20;0.20;;;7.80;99.90;;;;;;5050415;28;20228;-89
2023/01/05 01:21:50;;;;;;;0.20;0.20;;;7.90;99.90;;;;;;5052485;28;20191;-89
2023/01/05 01:24:19;;;;;;;0.20;0.20;;;7.80;99.90;;;;;;5051689;28;20433;-90
2023/01/05 01:26:45;;;;;;;0.20;0.20;;;7.80;99.90;;;;;;5048339;28;20230;-90
2023/01/05 01:29:11;;;;;;;0.20;0.20;;;7.80;99.90;;;;;;5039206;28;20446;-90
2023/01/05 01:31:36;;;;;;;0.20;0.20;;;7.80;99.90;;;;;;5052597;28;20285;-91
2023/01/05 01:34:03;;;;;;;0.20;0.20;;;7.70;99.90;;;;;;5050753;28;20201;-89
2023/01/05 01:36:28;;;;;;;0.20;0.20;;;7.80;99.90;;;;;;5051475;28;20191;-89
2023/01/05 01:38:54;;;;;;;0.20;0.20;;;7.70;99.90;;;;;;5051243;28;20456;-89
2023/01/05 01:41:19;;;;;;;0.20;0.20;;;7.80;99.90;;;;;;5049196;28;20187;-91
2023/01/05 01:43:53;;;;;;;0.30;0.30;;;7.70;99.90;;;;;;5034968;28;20643;-90
2023/01/05 01:46:20;;;;;;;0.30;0.30;;;7.70;99.90;;;;;;5044995;28;20397;-91
2023/01/05 01:49:14;;;;;;;0.20;0.20;;;7.80;99.90;;;;;;5051660;28;20449;-90
2023/01/05 01:51:44;;;;;;;0.20;0.20;;;7.80;99.90;;;;;;5039021;28;20951;-90
2023/01/05 01:54:16;;;;;;;0.20;0.20;;;7.70;99.90;;;;;;5033566;28;20840;-89
2023/01/05 01:56:46;;;;;;;0.30;0.30;;;7.70;99.90;;;;;;5024406;28;20445;-89
2023/01/05 01:59:13;;;;;;;0.30;0.30;;;7.80;99.90;;;;;;5047995;28;21033;-90
2023/01/05 02:01:39;;;;;;;0.20;0.20;;;7.80;99.90;;;;;;5046010;28;20441;-88
2023/01/05 02:04:05;;;;;;;0.30;0.30;;;7.80;99.90;;;;;;5048291;28;20465;-90
2023/01/05 02:06:31;;;;;;;0.30;0.30;;;7.80;99.90;;;;;;5050790;28;20471;-88
2023/01/05 02:08:56;;;;;;;0.20;0.20;;;7.80;99.90;;;;;;5050666;28;20913;-89
2023/01/05 02:11:28;;;;;;;0.30;0.30;;;7.70;99.90;;;;;;5049490;28;20191;-89
2023/01/05 02:14:15;;;;;;;0.30;0.30;;;7.70;99.90;;;;;;5052504;28;20265;-89
2023/01/05 02:16:50;;;;;;;0.30;0.30;;;7.70;99.90;;;;;;5046247;28;20492;-90
2023/01/05 02:20:02;;;;;;;0.20;0.20;;;7.70;99.90;;;;;;5051369;28;20530;-90
2023/01/05 02:23:01;;;;;;;0.20;0.20;;;7.70;99.90;;;;;;5052094;28;20480;-91
2023/01/05 02:25:58;;;;;;;0.20;0.20;;;7.70;99.90;;;;;;5050250;28;20449;-91
2023/01/05 02:28:46;;;;;;;0.30;0.30;;;7.70;99.90;;;;;;5045758;28;20484;-88
2023/01/05 02:31:17;;;;;;;0.20;0.20;;;7.70;99.90;;;;;;5021335;28;20449;-90
2023/01/05 02:34:08;;;;;;;0.20;0.20;;;7.60;99.90;;;;;;5042957;28;20547;-89
2023/01/05 02:36:52;;;;;;;0.20;0.20;;;7.70;99.90;;;;;;5040794;28;20452;-91
2023/01/05 02:39:31;;;;;;;0.20;0.20;;;7.60;99.90;;;;;;5044796;28;20460;-88
2023/01/05 02:42:04;;;;;;;0.20;0.20;;;7.60;99.90;;;;;;5042484;28;20895;-88
2023/01/05 02:44:32;;;;;;;0.20;0.20;;;7.60;99.90;;;;;;5046743;28;20483;-89
2023/01/05 02:47:06;;;;;;;0.30;0.30;;;7.60;99.90;;;;;;5030379;28;20484;-89
2023/01/05 02:49:38;;;;;;;0.20;0.20;;;7.70;99.90;;;;;;5040791;28;20440;-88
2023/01/05 02:52:05;;;;;;;0.30;0.30;;;7.70;99.90;;;;;;5027570;28;20444;-89
2023/01/05 02:54:37;;;;;;;0.30;0.30;;;7.70;99.90;;;;;;5044559;28;21064;-90
2023/01/05 02:57:12;;;;;;;0.20;0.20;;;7.70;99.90;;;;;;5045571;28;20455;-88
2023/01/05 02:59:50;;;;;;;0.20;0.20;;;7.80;99.90;;;;;;5041019;28;20445;-89
2023/01/05 03:02:24;;;;;;;0.20;0.20;;;7.80;99.90;;;;;;5047698;28;20448;-88
2023/01/05 03:04:54;;;;;;;0.20;0.20;;;7.80;99.90;;;;;;5037095;28;20486;-90
2023/01/05 03:07:26;;;;;;;0.20;0.20;;;7.80;99.90;;;;;;5049521;28;20910;-88
2023/01/05 03:09:52;;;;;;;0.20;0.20;;;7.80;99.90;;;;;;5049005;28;20447;-89
2023/01/05 03:15:28;;;;;;;0.30;0.30;;;7.70;99.90;;;;;;5034858;28;20197;-89
2023/01/05 03:17:57;;;;;;;0.30;0.30;;;7.70;99.90;;;;;;5032338;28;21080;-89
2023/01/05 03:20:26;;;;;;;0.30;0.30;;;7.70;99.90;;;;;;5031036;28;20445;-88
2023/01/05 03:37:30;;;;;;;0.20;0.20;;;7.80;99.90;;;;;;5044931;28;20439;-89
2023/01/05 03:39:55;;;;;;;0.30;0.30;;;7.80;99.90;;;;;;5049651;28;20445;-88
2023/01/05 03:42:21;;;;;;;0.20;0.20;;;7.80;99.90;;;;;;5050014;28;20441;-89
2023/01/05 03:44:48;;;;;;;0.20;0.20;;;7.80;99.90;;;;;;5047025;28;20198;-88
2023/01/05 03:47:14;;;;;;;0.20;0.20;;;7.90;99.90;;;;;;5049232;28;20480;-89
2023/01/05 03:49:40;;;;;;;0.20;0.20;;;7.80;99.90;;;;;;5050103;28;20452;-87
2023/01/05 03:52:06;;;;;;;0.20;0.20;;;7.80;99.90;;;;;;5049135;28;20190;-89
2023/01/05 03:54:31;;;;;;;0.20;0.20;;;7.80;99.90;;;;;;5049545;28;20496;-87
2023/01/05 03:56:57;;;;;;;0.30;0.30;;;7.80;99.90;;;;;;5048055;28;20556;-89
2023/01/05 03:59:22;;;;;;;0.20;0.20;;;7.80;99.90;;;;;;5031429;28;20274;-87
2023/01/05 04:01:48;;;;;;;0.20;0.20;;;7.80;99.90;;;;;;5042340;28;20663;-88
2023/01/05 04:04:13;;;;;;;0.30;0.30;;;7.80;99.90;;;;;;5041507;28;20289;-87
2023/01/05 04:06:39;;;;;;;0.20;0.20;;;7.80;99.90;;;;;;5048107;28;20215;-89
2023/01/05 04:09:04;;;;;;;0.20;0.20;;;7.80;99.90;;;;;;5050846;28;20183;-90
2023/01/05 04:11:30;;;;;;;0.20;0.20;;;7.80;99.90;;;;;;5048859;28;20261;-89
2023/01/05 04:13:56;;;;;;;0.20;0.20;;;7.80;99.90;;;;;;5032543;28;20674;-88
2023/01/05 04:16:21;;;;;;;0.20;0.20;;;7.80;99.90;;;;;;5043440;28;20194;-88
2023/01/05 04:18:47;;;;;;;0.20;0.20;;;7.80;99.90;;;;;;5048500;28;20195;-88
2023/01/05 04:21:13;;;;;;;0.20;0.20;;;7.80;99.90;;;;;;5049173;28;20186;-88
2023/01/05 04:23:38;;;;;;;0.20;0.20;;;7.80;99.90;;;;;;5044608;28;20730;-89
2023/01/05 04:26:04;;;;;;;0.20;0.20;;;7.80;99.90;;;;;;5042799;28;20187;-88
2023/01/05 04:28:29;;;;;;;0.30;0.30;;;7.70;99.90;;;;;;5029815;28;20686;-88
2023/01/05 04:30:55;;;;;;;0.30;0.30;;;7.70;99.90;;;;;;5031603;28;20600;-88
2023/01/05 04:33:22;;;;;;;0.20;0.20;;;7.70;99.90;;;;;;5047995;28;20227;-88
2023/01/05 04:35:48;;;;;;;0.20;0.20;;;7.70;99.90;;;;;;5033780;28;20794;-88
2023/01/05 04:38:14;;;;;;;0.20;0.20;;;7.60;99.90;;;;;;5052941;28;20452;-89
2023/01/05 04:40:40;;;;;;;0.27;0.27;;;7.70;99.90;;;;;;5052203;28;20561;-88
2023/01/05 04:43:06;;;;;;;0.20;0.20;;;7.60;99.90;;;;;;5052887;28;20540;-88
2023/01/05 04:45:32;;;;;;;0.20;0.20;;;7.70;99.90;;;;;;5048734;28;20658;-88
2023/01/05 04:47:58;;;;;;;0.20;0.20;;;7.70;99.90;;;;;;5052527;28;20976;-88
2023/01/05 04:50:23;;;;;;;0.30;0.30;;;7.70;99.90;;;;;;5051367;28;20524;-87
2023/01/05 04:52:49;;;;;;;0.20;0.20;;;7.70;99.90;;;;;;5048137;28;20270;-88
2023/01/05 04:55:15;;;;;;;0.30;0.30;;;7.70;99.90;;;;;;5051962;28;20183;-88
2023/01/05 04:57:40;;;;;;;0.30;0.30;;;7.80;99.90;;;;;;5033806;28;20183;-88
2023/01/05 05:00:07;;;;;;;0.30;0.30;;;7.80;99.90;;;;;;5051463;28;20266;-89
2023/01/05 05:02:33;;;;;;;0.20;0.20;;;7.80;99.90;;;;;;5050029;28;20197;-87
2023/01/05 05:04:59;;;;;;;0.20;0.20;;;7.70;99.90;;;;;;5049086;28;20548;-88
2023/01/05 05:07:25;;;;;;;0.20;0.20;;;7.70;99.90;;;;;;5019798;28;20526;-88
2023/01/05 05:09:51;;;;;;;0.20;0.20;;;7.70;99.90;;;;;;5023824;28;21768;-88
2023/01/05 05:12:19;;;;;;;0.20;0.20;;;7.60;99.90;;;;;;5051234;28;20198;-88
2023/01/05 05:14:46;;;;;;;0.20;0.20;;;7.50;99.90;;;;;;5032168;28;20537;-88
2023/01/05 05:17:12;;;;;;;0.20;0.20;;;7.50;99.90;;;;;;5046188;28;20446;-88
2023/01/05 05:19:37;;;;;;;0.20;0.20;;;7.40;99.90;;;;;;5030741;28;20469;-87
2023/01/05 05:22:03;;;;;;;0.20;0.20;;;7.40;99.90;;;;;;5033663;28;20693;-87
2023/01/05 05:24:29;;;;;;;0.20;0.20;;;7.40;99.90;;;;;;5033911;28;20274;-89
2023/01/05 05:26:56;;;;;;;0.20;0.20;;;7.40;99.90;;;;;;5031990;28;20211;-90
2023/01/05 05:29:22;;;;;;;0.30;0.30;;;7.40;99.90;;;;;;5036619;28;20646;-88
2023/01/05 05:31:47;;;;;;;0.30;0.30;;;7.40;99.90;;;;;;5046931;28;20488;-89
2023/01/05 05:34:13;;;;;;;0.20;0.20;;;7.40;99.90;;;;;;5031848;28;20486;-89
2023/01/05 05:36:38;;;;;;;0.30;0.30;;;7.50;99.90;;;;;;5032057;28;20221;-87
2023/01/05 05:39:04;;;;;;;0.20;0.20;;;7.50;99.90;;;;;;5047587;28;20568;-88
2023/01/05 05:41:29;;;;;;;0.20;0.20;;;7.50;99.90;;;;;;5050292;28;20175;-88
2023/01/05 05:43:59;;;;;;;0.20;0.20;;;7.50;99.90;;;;;;5048026;28;20281;-87
2023/01/05 05:46:26;;;;;;;0.20;0.20;;;7.60;99.90;;;;;;5040389;28;20667;-87
2023/01/05 05:48:51;;;;;;;0.20;0.20;;;7.60;99.90;;;;;;5044332;28;20457;-87
2023/01/05 05:51:16;;;;;;;0.23;0.23;;;7.60;99.90;;;;;;5048529;28;20445;-87
2023/01/05 05:53:42;;;;;;;0.30;0.30;;;7.70;99.90;;;;;;5049758;28;20206;-88
2023/01/05 05:56:07;;;;;;;0.20;0.20;;;7.70;99.90;;;;;;5052905;28;20190;-88
2023/01/05 05:58:33;;;;;;;0.20;0.20;;;7.70;99.90;;;;;;5050586;28;20945;-88
2023/01/05 06:00:58;;;;;;;0.20;0.20;;;7.70;99.90;;;;;;5044743;28;21805;-88
2023/01/05 06:03:24;;;;;;;0.30;0.30;;;7.70;99.90;;;;;;5039194;28;20195;-89
2023/01/05 06:05:50;;;;;;;0.30;0.30;;;7.80;99.90;;;;;;5044611;28;20349;-87
2023/01/05 06:08:15;;;;;;;0.20;0.20;;;7.80;99.90;;;;;;5047698;28;20217;-88
2023/01/05 06:10:41;;;;;;;0.20;0.20;;;7.80;99.90;;;;;;5042710;28;20598;-89
2023/01/05 06:13:06;;;;;;;0.30;0.30;;;7.80;99.90;;;;;;5047391;28;20490;-87
2023/01/05 06:15:32;;;;;;;0.30;0.30;;;7.80;99.90;;;;;;5026315;28;20712;-87
2023/01/05 06:17:57;;;;;;;0.20;0.20;;;7.80;99.90;;;;;;5048363;28;20240;-88
2023/01/05 06:20:23;;;;;;;0.20;0.20;;;7.80;99.90;;;;;;5044831;28;20227;-88
2023/01/05 06:22:48;;;;;;;0.20;0.20;;;7.80;99.90;;;;;;5048267;28;20725;-88
2023/01/05 06:25:14;;;;;;;0.20;0.20;;;7.80;99.90;;;;;;5045007;28;20599;-87
2023/01/05 06:27:40;;;;;;;0.20;0.20;;;7.80;99.90;;;;;;5025019;28;20222;-87
2023/01/05 06:30:06;;;;;;;0.20;0.20;;;7.80;99.90;;;;;;5046329;28;20516;-87
2023/01/05 06:32:31;;;;;;;0.30;0.30;;;7.70;99.90;;;;;;5028098;28;20186;-87
2023/01/05 06:34:57;;;;;;;0.20;0.20;;;7.70;99.90;;;;;;5026476;28;20452;-88
2023/01/05 06:37:22;;;;;;;0.23;0.23;;;7.70;99.90;;;;;;5042826;28;20179;-89
2023/01/05 06:39:48;;;;;;;0.23;0.23;;;7.80;99.90;;;;;;5029215;28;20187;-87
2023/01/05 06:42:13;;;;;;;0.27;0.27;;;7.70;99.90;;;;;;5048395;28;20269;-92
2023/01/05 06:44:39;;;;;;;0.20;0.20;;;7.70;99.90;;;;;;5046976;28;20179;-91
2023/01/05 06:47:04;;;;;;;0.30;0.30;;;7.70;99.90;;;;;;5046233;28;20209;-87
2023/01/05 06:49:30;;;;;;;0.30;0.30;;;7.60;99.90;;;;;;5028176;28;20266;-88
2023/01/05 06:51:55;;;;;;;0.20;0.20;;;7.50;99.90;;;;;;5026354;28;20658;-89
2023/01/05 06:54:21;;;;;;;0.30;0.30;;;7.30;99.90;;;;;;5049547;28;20193;-88
2023/01/05 06:56:46;;;;;;;0.20;0.20;;;7.20;99.90;;;;;;5047955;28;20182;-86
2023/01/05 06:59:12;;;;;;;0.20;0.20;;;7.10;99.90;;;;;;5042510;28;20218;-87
2023/01/05 07:01:38;;;;;;;0.30;0.30;;;7.00;99.90;;;;;;5045994;28;20191;-88
2023/01/05 07:04:03;;;;;;;0.30;0.30;;;6.90;99.90;;;;;;5021187;28;20216;-87
2023/01/05 07:06:30;;;;;;;0.30;0.30;;;6.70;99.90;;;;;;5003541;28;20219;-89
2023/01/05 07:08:55;;;;;;;0.20;0.20;;;6.70;99.90;;;;;;5009297;28;20231;-87
2023/01/05 07:11:21;;;;;;;0.30;0.30;;;6.60;99.90;;;;;;5003728;28;20474;-87
2023/01/05 07:13:48;;;;;;;0.30;0.30;;;6.50;99.90;;;;;;5004285;28;20199;-87
2023/01/05 07:16:14;;;;;;;0.30;0.30;;;6.40;99.90;;;;;;5004066;28;20188;-88
2023/01/05 07:18:39;;;;;;;0.30;0.30;;;6.30;99.90;;;;;;5003510;28;20861;-87
2023/01/05 07:21:05;;;;;;;0.20;0.20;;;6.20;99.90;;;;;;5006032;28;20188;-86
2023/01/05 07:23:30;;;;;;;0.20;0.20;;;6.10;99.90;;;;;;5004259;28;20184;-87
2023/01/05 07:26:00;;;;;;;0.23;0.23;;;5.90;99.90;;;;;;5006652;28;20188;-88
2023/01/05 07:28:25;;;;;;;0.30;0.30;;;5.70;99.90;;;;;;5002868;28;20254;-89
2023/01/05 07:30:51;;;;;;;0.20;0.20;;;5.60;99.90;;;;;;5005671;28;20447;-89
2023/01/05 07:33:17;;;;;;;0.30;0.30;;;5.50;99.90;;;;;;5008799;28;20204;-89
2023/01/05 07:35:43;;;;;;;0.30;0.30;;;5.50;99.90;;;;;;5009663;28;20275;-89
2023/01/05 07:38:08;;;;;;;0.20;0.20;;;5.70;99.90;;;;;;5009328;28;20463;-89
2023/01/05 07:40:34;;;;;;;0.30;0.30;;;5.60;99.90;;;;;;5008744;28;20290;-88
2023/01/05 07:43:00;;;;;;;0.30;0.30;;;5.60;99.90;;;;;;5004603;28;20338;-88
2023/01/05 07:45:25;;;;;;;0.30;0.30;;;5.50;99.90;;;;;;5006241;28;20559;-88
2023/01/05 07:47:51;;;;;;;0.27;0.27;;;5.40;99.90;;;;;;4998324;28;20783;-87
2023/01/05 07:50:16;;;;;;;0.30;0.30;;;5.40;99.90;;;;;;5012103;28;20740;-88
2023/01/05 07:52:42;;;;;;;0.20;0.20;;;5.30;99.90;;;;;;5023755;28;20192;-87
2023/01/05 07:55:08;;;;;;;0.20;0.20;;;5.30;99.90;;;;;;5008448;28;20196;-88
2023/01/05 07:57:33;;;;;;;0.30;0.30;;;5.20;99.90;;;;;;5006664;28;20188;-88
2023/01/05 07:59:59;;;;;;;0.30;0.30;;;5.20;99.90;;;;;;5025961;28;20203;-87
2023/01/05 08:02:26;;;;;;;0.30;0.30;;;5.10;99.90;;;;;;5009728;28;20188;-87
2023/01/05 08:04:52;;;;;;;0.20;0.20;;;5.10;99.90;;;;;;5031424;28;20222;-87
2023/01/05 08:07:17;;;;;;;0.23;0.23;;;5.10;99.90;;;;;;5030078;28;20488;-88
2023/01/05 08:12:28;;;;;;;0.40;0.40;;;5.00;99.90;;;;;;5047306;28;20189;-88
2023/01/05 08:14:54;;;;;;;0.40;0.40;;;5.00;99.90;;;;;;5049058;28;20456;-89
2023/01/05 08:17:19;;;;;;;0.30;0.30;;;5.00;99.90;;;;;;5051258;28;21180;-89
2023/01/05 08:19:45;;;;;;;0.30;0.30;;;4.90;99.90;;;;;;5052713;28;20273;-89
2023/01/05 08:22:10;;;;;;;0.30;0.30;;;4.90;99.90;;;;;;5048109;28;20186;-89
2023/01/05 08:24:36;;;;;;;0.40;0.40;;;4.80;99.90;;;;;;5047334;28;20529;-88
2023/01/05 08:27:01;;;;;;;0.30;0.30;;;4.90;99.90;;;;;;5044958;28;20222;-88
2023/01/05 08:29:27;;;;;;;0.30;0.30;;;4.80;99.90;;;;;;5048602;28;20677;-89
2023/01/05 08:31:53;;;;;;;0.30;0.30;;;4.80;99.90;;;;;;5049442;28;20190;-88
2023/01/05 08:34:18;;;;;;;0.30;0.30;;;4.80;99.90;;;;;;5050192;28;20190;-88
2023/01/05 08:36:44;;;;;;;0.30;0.30;;;4.80;99.90;;;;;;5051172;28;20573;-86
2023/01/05 08:39:10;;;;;;;0.30;0.30;;;4.90;99.90;;;;;;5050196;28;20175;-87
2023/01/05 08:41:37;;;;;;;0.30;0.30;;;4.90;99.90;;;;;;5045228;28;20639;-87
2023/01/05 08:44:06;;;;;;;0.30;0.30;;;5.00;99.90;;;;;;5050753;28;20448;-88
2023/01/05 08:46:33;;;;;;;0.30;0.30;;;5.10;99.90;;;;;;5049017;28;20469;-88
2023/01/05 08:49:01;;;;;;;0.30;0.30;;;5.20;99.90;;;;;;5051296;28;20449;-88
2023/01/05 08:51:27;;;;;;;0.30;0.30;;;5.40;99.90;;;;;;5025113;28;20432;-88
2023/01/05 08:53:53;;;;;;;0.30;0.30;;;5.30;99.90;;;;;;5052197;28;20542;-88
2023/01/05 08:56:19;;;;;;;0.30;0.30;;;5.20;99.90;;;;;;5033424;28;20863;-88
2023/01/05 08:58:45;;;;;;;0.30;0.30;;;5.20;99.90;;;;;;5049411;28;20187;-87
2023/01/05 09:01:13;;;;;;;0.30;0.30;;;5.10;99.90;;;;;;5047254;28;20445;-88
2023/01/05 09:03:39;;;;;;;0.30;0.30;;;5.10;99.90;;;;;;5046088;28;20641;-89
2023/01/05 09:06:08;;;;;;;0.30;0.30;;;5.10;99.90;;;;;;5032688;28;20455;-88
2023/01/05 09:08:33;;;;;;;0.30;0.30;;;5.00;99.90;;;;;;5049292;28;20771;-87
2023/01/05 09:11:09;;;;;;;0.30;0.30;;;5.10;99.90;;;;;;5032221;28;20479;-89
2023/01/05 09:13:36;;;;;;;0.30;0.30;;;5.20;99.90;;;;;;5049446;28;20186;-88
2023/01/05 09:16:10;;;;;;;0.30;0.30;;;5.10;99.90;;;;;;5048857;28;20454;-89
2023/01/05 09:18:36;;;;;;;0.30;0.30;;;5.20;99.90;;;;;;5028833;28;20479;-88
2023/01/05 09:21:02;;;;;;;0.30;0.30;;;5.10;99.90;;;;;;5044737;28;20511;-88
2023/01/05 09:23:28;;;;;;;0.30;0.30;;;5.20;99.90;;;;;;5050384;28;20853;-89
2023/01/05 09:25:54;;;;;;;0.37;0.37;;;5.20;99.90;;;;;;5053307;28;20447;-89
2023/01/05 09:28:19;;;;;;;0.30;0.30;;;5.10;99.90;;;;;;5048796;28;20219;-89
2023/01/05 09:30:45;;;;;;;0.30;0.30;;;5.10;99.90;;;;;;5048562;28;20186;-90
2023/01/05 09:33:10;;;;;;;0.30;0.30;;;5.10;99.90;;;;;;5046320;28;20253;-89
2023/01/05 09:35:36;;;;;;;0.30;0.30;;;5.10;99.90;;;;;;5052099;28;20257;-89
2023/01/05 09:38:01;;;;;;;0.20;0.20;;;5.00;99.90;;;;;;5049296;28;20244;-88
2023/01/05 09:40:29;;;;;;;0.30;0.30;;;5.10;99.90;;;;;;5051338;28;20633;-87
2023/01/05 09:42:55;;;;;;;0.30;0.30;;;5.10;99.90;;;;;;5032840;28;20554;-87
2023/01/05 09:45:26;;;;;;;0.30;0.30;;;5.20;99.90;;;;;;5050677;28;20445;-90
2023/01/05 09:47:54;;;;;;;0.30;0.30;;;5.30;99.90;;;;;;5028720;28;20222;-88
2023/01/05 09:50:22;;;;;;;0.20;0.20;;;5.20;99.90;;;;;;5051365;28;20449;-89
2023/01/05 09:52:50;;;;;;;0.20;0.20;;;5.30;99.90;;;;;;5052949;28;20433;-89
2023/01/05 09:55:17;;;;;;;0.20;0.20;;;5.30;99.90;;;;;;5044707;28;20464;-89
2023/01/05 09:57:55;;;;;;;0.20;0.20;;;5.40;99.90;;;;;;5024701;28;20493;-88
2023/01/05 10:00:22;;;;;;;0.30;0.30;;;5.50;99.90;;;;;;5050308;28;20451;-89
2023/01/05 10:02:52;;;;;;;0.30;0.30;;;5.50;99.90;;;;;;5044119;28;20861;-87
2023/01/05 10:05:19;;;;;;;0.30;0.30;;;5.50;99.90;;;;;;5049692;28;21213;-88
2023/01/05 10:07:54;;;;;;;0.30;0.30;;;5.40;99.90;;;;;;5042738;28;20520;-88
2023/01/05 10:10:34;;;;;;;0.30;0.30;;;5.60;99.90;;;;;;5030969;28;20882;-88
2023/01/05 10:13:02;;;;;;;0.20;0.20;;;5.60;99.90;;;;;;5050703;28;20445;-88
2023/01/05 10:15:50;;;;;;;0.30;0.30;;;5.60;99.90;;;;;;5049076;28;20437;-88
2023/01/05 10:18:21;;;;;;;0.30;0.30;;;5.60;99.90;;;;;;5050625;28;20801;-88
2023/01/05 10:20:55;;;;;;;0.20;0.20;;;5.70;99.90;;;;;;5047849;28;20437;-88
2023/01/05 10:23:35;;;;;;;0.30;0.30;;;5.70;99.90;;;;;;5045888;28;20465;-88
2023/01/05 10:26:11;;;;;;;0.40;0.40;;;5.80;99.90;;;;;;5047821;28;20460;-88
2023/01/05 10:28:41;;;;;;;0.30;0.30;;;5.80;99.90;;;;;;5049605;28;20492;-88
2023/01/05 10:31:28;;;;;;;0.30;0.30;;;5.80;99.90;;;;;;5049690;28;20859;-87
2023/01/05 10:34:21;;;;;;;0.30;0.30;;;5.80;99.90;;;;;;5048201;28;20506;-87
2023/01/05 10:37:01;;;;;;;0.30;0.30;;;5.70;99.90;;;;;;5018517;28;20446;-86
2023/01/05 10:40:05;;;;;;;0.27;0.27;;;5.70;99.90;;;;;;5041192;28;20468;-87
2023/01/05 10:42:44;;;;;;;0.30;0.30;;;5.80;99.90;;;;;;5018847;28;20940;-86
2023/01/05 10:45:13;;;;;;;0.30;0.30;;;5.90;99.90;;;;;;5021521;28;20495;-86
2023/01/05 10:47:39;;;;;;;0.30;0.30;;;6.00;99.90;;;;;;5047155;28;20485;-87
2023/01/05 10:50:39;;;;;;;0.30;0.30;;;6.20;99.90;;;;;;5023026;28;20572;-87
2023/01/05 10:53:18;;;;;;;0.30;0.30;;;6.40;99.90;;;;;;5042312;28;20442;-86
2023/01/05 10:56:03;;;;;;;0.27;0.27;;;6.70;99.90;;;;;;5041807;28;20508;-85
2023/01/05 10:58:31;;;;;;;0.30;0.30;;;6.70;99.90;;;;;;5043362;28;20437;-86
2023/01/05 11:01:23;;;;;;;0.20;0.20;;;6.50;99.90;;;;;;5030443;28;20444;-86
2023/01/05 11:03:53;;;;;;;0.30;0.30;;;6.90;99.90;;;;;;5033870;28;20473;-85
2023/01/05 11:06:29;;;;;;;0.20;0.20;;;7.20;99.90;;;;;;5031777;28;20847;-88
2023/01/05 11:09:16;;;;;;;0.30;0.30;;;7.30;99.90;;;;;;5047728;28;20451;-86
2023/01/05 11:11:42;;;;;;;0.30;0.30;;;7.40;99.90;;;;;;5032394;28;21273;-87
2023/01/05 11:14:15;;;;;;;0.20;0.20;;;7.40;99.90;;;;;;5042684;28;20586;-86
2023/01/05 11:16:50;;;;;;;0.30;0.30;;;7.20;99.90;;;;;;5030950;28;20228;-91
2023/01/05 11:19:20;;;;;;;0.20;0.20;;;7.20;99.90;;;;;;5039500;28;20507;-90
2023/01/05 11:21:46;;;;;;;0.20;0.20;;;7.00;99.90;;;;;;5038345;28;20456;-86
2023/01/05 11:24:24;;;;;;;0.20;0.20;;;7.00;99.90;;;;;;5046094;28;20945;-89
2023/01/05 11:26:55;;;;;;;0.20;0.20;;;6.90;99.90;;;;;;5038675;28;20505;-90
2023/01/05 11:29:21;;;;;;;0.30;0.30;;;6.90;99.90;;;;;;5039780;28;20540;-90
2023/01/05 11:32:03;;;;;;;0.30;0.30;;;6.80;99.90;;;;;;5049674;28;20555;-88
2023/01/05 11:34:42;;;;;;;0.20;0.20;;;6.70;99.90;;;;;;5042423;28;20476;-89
2023/01/05 11:37:29;;;;;;;0.30;0.30;;;6.70;99.90;;;;;;5048020;28;20441;-90
2023/01/05 11:39:58;;;;;;;0.30;0.30;;;6.70;99.90;;;;;;5051215;28;20540;-88
2023/01/05 11:42:24;;;;;;;0.30;0.30;;;6.70;99.90;;;;;;5034661;28;20977;-87
2023/01/05 11:44:54;;;;;;;0.23;0.23;;;6.80;99.90;;;;;;5045342;28;20525;-91
2023/01/05 11:47:24;;;;;;;0.30;0.30;;;6.70;99.90;;;;;;5052361;28;20301;-88
2023/01/05 11:49:59;;;;;;;0.30;0.30;;;6.60;99.90;;;;;;5048063;28;20438;-90
2023/01/05 11:52:31;;;;;;;0.20;0.20;;;6.50;99.90;;;;;;5023548;28;20441;-90
2023/01/05 11:54:56;;;;;;;0.30;0.30;;;6.40;99.90;;;;;;5035250;28;20414;-88
2023/01/05 11:57:22;;;;;;;0.20;0.20;;;6.40;99.90;;;;;;5054084;28;20791;-88
2023/01/05 11:59:50;;;;;;;0.30;0.30;;;6.40;99.90;;;;;;5033889;28;20190;-88
2023/01/05 12:02:47;;;;;;;0.30;0.30;;;6.30;99.90;;;;;;5052143;28;20240;-89
2023/01/05 12:05:25;;;;;;;0.30;0.30;;;6.40;99.90;;;;;;5031006;28;20554;-88
2023/01/05 12:08:09;;;;;;;0.30;0.30;;;6.50;99.90;;;;;;5048792;28;20849;-87
2023/01/05 12:10:40;;;;;;;0.30;0.30;;;6.60;99.90;;;;;;5047398;28;20924;-88
2023/01/05 12:13:33;;;;;;;0.30;0.30;;;6.50;99.90;;;;;;5032473;28;20979;-89
2023/01/05 12:16:18;;;;;;;0.30;0.30;;;6.50;99.90;;;;;;5048814;28;20440;-89
2023/01/05 12:19:15;;;;;;;0.20;0.20;;;6.50;99.90;;;;;;5050390;28;20441;-88
2023/01/05 12:22:09;;;;;;;0.20;0.20;;;6.40;99.90;;;;;;5050765;28;20441;-87
2023/01/05 12:25:09;;;;;;;0.30;0.30;;;6.40;99.90;;;;;;5048857;28;20460;-87
2023/01/05 12:28:10;;;;;;;0.30;0.30;;;6.40;99.90;;;;;;5019386;28;20517;-87
2023/01/05 12:30:45;;;;;;;0.30;0.30;;;6.50;99.90;;;;;;5048317;28;20468;-87
2023/01/05 12:33:37;;;;;;;0.30;0.30;;;6.50;99.90;;;;;;5051784;28;20555;-88
2023/01/05 12:36:55;;;;;;;0.30;0.30;;;6.50;99.90;;;;;;5034981;28;20451;-91
2023/01/05 12:39:46;;;;;;;0.30;0.30;;;6.40;99.90;;;;;;5006120;28;20449;-90
2023/01/05 12:42:42;;;;;;;0.30;0.30;;;6.40;99.90;;;;;;5048921;28;20437;-90
2023/01/05 12:45:30;;;;;;;0.30;0.30;;;6.40;99.90;;;;;;5024417;28;20476;-89
2023/01/05 12:47:58;;;;;;;0.30;0.30;;;6.40;99.90;;;;;;5044542;28;20517;-90
2023/01/05 12:50:24;;;;;;;0.20;0.20;;;6.50;99.90;;;;;;5041867;28;20466;-91
2023/01/05 12:53:00;;;;;;;0.30;0.30;;;6.30;99.90;;;;;;5041963;28;20501;-89
2023/01/05 12:55:50;;;;;;;0.30;0.30;;;6.50;99.90;;;;;;5035629;28;20183;-90
2023/01/05 12:58:34;;;;;;;0.30;0.30;;;6.60;99.90;;;;;;5043358;28;20439;-90
2023/01/05 13:01:01;;;;;;;0.23;0.23;;;6.70;99.90;;;;;;5043154;28;20522;-88
2023/01/05 13:03:34;;;;;;;0.20;0.20;;;7.70;99.90;;;;;;5046589;28;20941;-87
2023/01/05 13:06:07;;;;;;;0.30;0.30;;;7.40;99.90;;;;;;5042801;28;20556;-87
2023/01/05 13:08:54;;;;;;;0.30;0.30;;;7.10;99.90;;;;;;5039718;28;20476;-90
2023/01/05 13:11:29;;;;;;;0.20;0.20;;;7.60;99.90;;;;;;5045929;28;20552;-91
2023/01/05 13:14:01;;;;;;;0.20;0.20;;;8.00;99.90;;;;;;5034467;28;20828;-90
2023/01/05 13:16:37;;;;;;;0.20;0.20;;;8.20;99.90;;;;;;5048235;28;20452;-89
2023/01/05 13:19:24;;;;;;;0.20;0.20;;;8.00;99.90;;;;;;5049487;28;20472;-89
2023/01/05 13:21:51;;;;;;;0.20;0.20;;;8.60;99.90;;;;;;5039139;28;20539;-87
2023/01/05 13:24:36;;;;;;;0.20;0.20;;;9.50;99.90;;;;;;5050017;28;20879;-87
2023/01/05 13:27:02;;;;;;;0.20;0.20;;;10.00;99.90;;;;;;5041125;28;21039;-88
2023/01/05 13:29:45;;;;;;;0.10;0.10;;;10.50;99.90;;;;;;5049612;28;20952;-87
2023/01/05 13:32:46;;;;;;;0.20;0.20;;;11.30;99.90;;;;;;5046882;28;20450;-89
2023/01/05 13:35:46;;;;;;;0.10;0.10;;;11.50;99.90;;;;;;5045650;28;20449;-89
2023/01/05 13:38:55;;;;;;;0.10;0.10;;;11.10;99.90;;;;;;5045993;28;20447;-88
2023/01/05 13:41:50;;;;;;;0.10;0.10;;;11.40;99.90;;;;;;5035865;28;20449;-91
2023/01/05 13:44:53;;;;;;;0.10;0.10;;;10.90;99.90;;;;;;5030224;28;20496;-88
2023/01/05 13:47:24;;;;;;;0.20;0.20;;;10.20;99.90;;;;;;5027048;28;21024;-87
2023/01/05 13:50:01;;;;;;;0.20;0.20;;;8.60;99.90;;;;;;5038895;28;20477;-85